createdAt,value
2019-06-15T00:00:36.766Z,77.86
2019-06-15T00:03:08.282Z,78.56
2019-06-15T00:05:38.992Z,77.60
2019-06-15T00:08:12.432Z,78.25
2019-06-15T00:10:44.548Z,79.31
2019-06-15T00:13:19.614Z,79.66
2019-06-15T00:15:51.435Z,82.21
2019-06-15T00:18:28.245Z,80.39
2019-06-15T00:21:01.601Z,79.70
2019-06-15T00:23:40.921Z,78.99
2019-06-15T00:26:14.710Z,79.33
2019-06-15T00:28:45.448Z,79.79
2019-06-15T00:31:16.652Z,81.47
2019-06-15T00:33:46.954Z,84.23
2019-06-15T00:36:19.034Z,81.46
2019-06-15T00:38:49.799Z,81.06
2019-06-15T00:41:20.960Z,82.75
2019-06-15T00:43:55.211Z,84.71
2019-06-15T00:46:26.089Z,83.24
2019-06-15T00:48:59.374Z,82.55
2019-06-15T00:51:34.923Z,82.89
2019-06-15T00:54:05.516Z,83.37
2019-06-15T00:56:36.963Z,85.41
2019-06-15T00:59:11.092Z,85.23
2019-06-15T01:01:41.340Z,82.35
2019-06-15T01:04:16.819Z,83.73
2019-06-15T01:06:56.614Z,82.21
2019-06-15T01:09:27.160Z,83.93
2019-06-15T01:11:57.608Z,86.00
2019-06-15T01:14:28.060Z,86.33
2019-06-15T01:16:58.682Z,85.65
2019-06-15T01:19:37.142Z,86.22
2019-06-15T01:22:07.869Z,86.42
2019-06-15T01:24:37.578Z,81.78
2019-06-15T01:27:10.628Z,80.35
2019-06-15T01:29:40.360Z,81.35
2019-06-15T01:32:10.020Z,81.63
2019-06-15T01:34:39.685Z,83.19
2019-06-15T01:37:09.438Z,82.53
2019-06-15T01:39:39.312Z,83.60
2019-06-15T01:42:09.039Z,84.45
2019-06-15T01:44:38.812Z,83.15
2019-06-15T01:47:08.572Z,84.42
2019-06-15T01:49:38.332Z,85.54
2019-06-15T01:52:08.117Z,84.74
2019-06-15T01:54:37.866Z,85.80
2019-06-15T01:57:08.621Z,84.86
2019-06-15T01:59:38.328Z,83.87
2019-06-15T02:02:08.124Z,86.62
2019-06-15T02:04:37.903Z,86.11
2019-06-15T02:07:07.625Z,87.48
2019-06-15T02:09:38.770Z,87.04
2019-06-15T02:12:08.585Z,87.80
2019-06-15T02:14:38.281Z,87.70
2019-06-15T02:17:07.960Z,86.09
2019-06-15T02:19:37.617Z,86.56
2019-06-15T02:22:07.322Z,85.06
2019-06-15T02:24:36.992Z,87.00
2019-06-15T02:27:06.778Z,86.09
2019-06-15T02:29:36.447Z,85.75
2019-06-15T02:32:06.312Z,84.22
2019-06-15T02:34:35.971Z,85.09
2019-06-15T02:37:05.773Z,85.13
2019-06-15T02:39:35.533Z,86.26
2019-06-15T02:42:05.507Z,87.81
2019-06-15T02:44:35.315Z,87.01
2019-06-15T02:47:05.095Z,87.52
2019-06-15T02:49:34.795Z,85.51
2019-06-15T02:52:04.648Z,84.49
2019-06-15T02:54:34.495Z,86.63
2019-06-15T02:57:04.138Z,86.77
2019-06-15T02:59:33.931Z,85.92
2019-06-15T03:02:03.705Z,84.55
2019-06-15T03:04:33.439Z,85.15
2019-06-15T03:07:03.102Z,84.22
2019-06-15T03:09:32.813Z,85.10
2019-06-15T03:12:02.542Z,87.17
2019-06-15T03:14:32.156Z,86.19
2019-06-15T03:17:01.799Z,84.92
2019-06-15T03:19:31.405Z,84.82
2019-06-15T03:22:01.053Z,84.85
2019-06-15T03:24:30.684Z,84.52
2019-06-15T03:27:00.469Z,87.63
2019-06-15T03:29:30.213Z,86.78
2019-06-15T03:31:59.909Z,86.57
2019-06-15T03:34:29.669Z,83.59
2019-06-15T03:36:59.419Z,83.70
2019-06-15T03:39:29.199Z,85.04
2019-06-15T03:41:59.249Z,85.57
2019-06-15T03:44:28.948Z,87.53
2019-06-15T03:46:58.628Z,87.22
2019-06-15T03:49:28.327Z,85.87
2019-06-15T03:51:58.033Z,86.26
2019-06-15T03:54:27.811Z,87.15
2019-06-15T03:56:57.586Z,85.03
2019-06-15T03:59:27.274Z,84.34
2019-06-15T04:01:56.940Z,84.74
2019-06-15T04:04:26.634Z,85.47
2019-06-15T04:06:56.345Z,85.03
2019-06-15T04:09:26.256Z,85.96
2019-06-15T04:11:55.924Z,86.20
2019-06-15T04:14:25.575Z,85.33
2019-06-15T04:16:55.409Z,83.27
2019-06-15T04:19:25.072Z,84.68
2019-06-15T04:21:56.172Z,82.69
2019-06-15T04:24:25.831Z,82.79
2019-06-15T04:26:55.506Z,82.19
2019-06-15T04:29:25.328Z,83.66
2019-06-15T04:31:54.964Z,84.61
2019-06-15T04:34:24.602Z,83.02
2019-06-15T04:36:54.740Z,82.46
2019-06-15T04:39:24.387Z,84.39
2019-06-15T04:41:54.008Z,81.19
2019-06-15T04:44:23.604Z,81.98
2019-06-15T04:46:53.332Z,81.97
2019-06-15T04:49:23.049Z,81.74
2019-06-15T04:51:52.708Z,80.21
2019-06-15T04:54:22.545Z,81.10
2019-06-15T04:56:52.344Z,82.31
2019-06-15T04:59:22.131Z,82.09
2019-06-15T05:01:51.907Z,82.04
2019-06-15T05:04:21.723Z,80.88
2019-06-15T05:06:51.490Z,81.49
2019-06-15T05:09:21.450Z,82.84
2019-06-15T05:11:51.493Z,80.62
2019-06-15T05:14:21.548Z,79.83
2019-06-15T05:16:53.397Z,80.50
2019-06-15T05:19:23.280Z,80.44
2019-06-15T05:21:53.349Z,80.75
2019-06-15T05:24:23.308Z,80.48
2019-06-15T05:27:05.596Z,80.26
2019-06-15T05:29:24.885Z,77.73
2019-06-15T05:31:54.840Z,79.55
2019-06-15T05:34:24.676Z,77.70
2019-06-15T05:36:54.336Z,78.61
2019-06-15T05:39:23.952Z,78.22
2019-06-15T05:41:53.599Z,76.46
2019-06-15T05:44:23.308Z,78.59
2019-06-15T05:46:53.084Z,78.90
2019-06-15T05:49:23.455Z,80.03
2019-06-15T05:51:53.487Z,81.20
2019-06-15T05:54:23.220Z,80.94
2019-06-15T05:56:52.849Z,78.58
2019-06-15T05:59:22.448Z,78.19
2019-06-15T06:01:52.155Z,77.51
2019-06-15T06:04:21.938Z,76.87
2019-06-15T06:06:51.662Z,75.92
2019-06-15T06:09:21.414Z,76.33
2019-06-15T06:11:51.063Z,78.17
2019-06-15T06:14:20.893Z,77.44
2019-06-15T06:16:50.553Z,75.64
2019-06-15T06:19:20.350Z,76.09
2019-06-15T06:21:50.142Z,76.38
2019-06-15T06:24:19.841Z,77.12
2019-06-15T06:26:49.524Z,76.47
2019-06-15T06:29:19.414Z,75.69
2019-06-15T06:31:49.074Z,75.85
2019-06-15T06:34:18.663Z,75.15
2019-06-15T06:36:48.350Z,72.72
2019-06-15T06:39:18.123Z,74.34
2019-06-15T06:41:47.766Z,73.43
2019-06-15T06:44:17.518Z,71.79
2019-06-15T06:46:47.377Z,74.73
2019-06-15T06:49:17.172Z,74.87
2019-06-15T06:51:48.026Z,74.85
2019-06-15T06:54:17.860Z,76.32
2019-06-15T06:56:48.518Z,73.97
2019-06-15T06:59:18.568Z,75.75
2019-06-15T07:01:48.622Z,75.60
2019-06-15T07:04:18.272Z,74.81
2019-06-15T07:06:47.923Z,75.49
2019-06-15T07:09:17.773Z,76.04
2019-06-15T07:11:47.582Z,76.00
2019-06-15T07:14:17.682Z,74.42
2019-06-15T07:16:47.436Z,73.82
2019-06-15T07:19:17.211Z,73.92
2019-06-15T07:21:46.885Z,74.48
2019-06-15T07:24:16.489Z,76.47
2019-06-15T07:26:46.211Z,74.65
2019-06-15T07:29:15.964Z,76.80
2019-06-15T07:31:59.973Z,74.95
2019-06-15T07:34:29.975Z,77.47
2019-06-15T07:37:01.602Z,77.45
2019-06-15T07:39:31.010Z,75.82
2019-06-15T07:42:00.733Z,77.24
2019-06-15T07:44:30.406Z,77.71
2019-06-15T07:47:00.112Z,79.42
2019-06-15T07:49:29.736Z,78.23
2019-06-15T07:51:59.625Z,78.88
2019-06-15T07:54:29.299Z,80.00
2019-06-15T07:56:59.033Z,79.99
2019-06-15T07:59:28.744Z,80.17
2019-06-15T08:01:58.525Z,79.00
2019-06-15T08:04:28.281Z,79.27
2019-06-15T08:06:57.942Z,78.67
2019-06-15T08:09:27.727Z,78.00
2019-06-15T08:11:57.498Z,78.15
2019-06-15T08:14:27.382Z,77.95
2019-06-15T08:16:57.169Z,76.62
2019-06-15T08:19:26.970Z,76.87
2019-06-15T08:21:56.699Z,76.86
2019-06-15T08:24:26.516Z,76.18
2019-06-15T08:26:57.190Z,71.99
2019-06-15T08:29:26.976Z,69.70
2019-06-15T08:31:56.771Z,64.36
2019-06-15T08:34:26.455Z,56.58
2019-06-15T08:36:56.112Z,54.73
2019-06-15T08:39:26.082Z,51.95
2019-06-15T08:41:57.021Z,56.00
2019-06-15T08:44:26.741Z,53.94
2019-06-15T08:46:59.218Z,58.31
2019-06-15T08:49:27.883Z,59.85
2019-06-15T08:51:57.844Z,60.35
2019-06-15T08:54:27.556Z,56.99
2019-06-15T08:56:57.367Z,54.44
2019-06-15T08:59:27.031Z,50.69
2019-06-15T09:01:56.827Z,53.86
2019-06-15T09:04:26.463Z,53.43
2019-06-15T09:06:56.154Z,47.92
2019-06-15T09:09:26.866Z,47.33
2019-06-15T09:11:56.559Z,51.45
2019-06-15T09:14:26.242Z,53.44
2019-06-15T09:16:55.984Z,49.84
2019-06-15T09:19:25.742Z,48.28
2019-06-15T09:21:55.425Z,52.48
2019-06-15T09:24:25.242Z,54.34
2019-06-15T09:26:54.930Z,56.50
2019-06-15T09:29:24.633Z,62.12
2019-06-15T09:31:54.393Z,62.71
2019-06-15T09:34:24.241Z,60.95
2019-06-15T09:36:55.126Z,61.85
2019-06-15T09:39:24.965Z,61.98
2019-06-15T09:41:54.866Z,63.38
2019-06-15T09:44:24.493Z,63.15
2019-06-15T09:46:54.928Z,62.80
2019-06-15T09:49:24.837Z,62.94
2019-06-15T09:51:54.538Z,64.61
2019-06-15T09:54:24.186Z,63.87
2019-06-15T09:56:54.034Z,63.86
2019-06-15T09:59:26.307Z,63.71
2019-06-15T10:01:55.904Z,64.65
2019-06-15T10:04:27.272Z,64.32
2019-06-15T10:06:58.109Z,64.83
2019-06-15T10:09:27.798Z,64.53
2019-06-15T10:11:57.940Z,63.00
2019-06-15T10:14:27.792Z,61.36
2019-06-15T10:16:57.686Z,60.90
2019-06-15T10:19:27.276Z,60.10
2019-06-15T10:21:57.238Z,61.52
2019-06-15T10:24:27.847Z,60.91
2019-06-15T10:26:57.565Z,60.45
2019-06-15T10:29:41.291Z,61.24
2019-06-15T10:31:59.052Z,61.68
2019-06-15T10:34:28.910Z,60.90
2019-06-15T10:36:58.659Z,62.03
2019-06-15T10:39:28.337Z,61.20
2019-06-15T10:41:57.988Z,60.10
2019-06-15T10:44:28.032Z,56.13
2019-06-15T10:46:58.001Z,57.98
2019-06-15T10:49:28.090Z,59.65
2019-06-15T10:51:57.813Z,60.78
2019-06-15T10:54:27.670Z,59.84
2019-06-15T10:56:58.159Z,58.72
2019-06-15T10:59:30.102Z,58.93
2019-06-15T11:01:59.862Z,56.92
2019-06-15T11:04:29.618Z,56.01
2019-06-15T11:07:00.278Z,55.91
2019-06-15T11:09:30.115Z,55.76
2019-06-15T11:11:59.919Z,55.34
2019-06-15T11:14:29.662Z,54.54
2019-06-15T11:17:00.670Z,54.90
2019-06-15T11:19:30.304Z,55.59
2019-06-15T11:21:59.995Z,56.02
2019-06-15T11:24:29.735Z,56.19
2019-06-15T11:26:59.369Z,57.12
2019-06-15T11:29:29.101Z,56.00
2019-06-15T11:31:58.829Z,54.61
2019-06-15T11:34:28.501Z,56.46
2019-06-15T11:36:58.255Z,57.15
2019-06-15T11:42:03.271Z,53.76
2019-06-15T11:44:32.988Z,54.28
2019-06-15T11:47:02.732Z,54.92
2019-06-15T11:49:32.510Z,53.09
2019-06-15T11:52:03.507Z,51.84
2019-06-15T11:54:33.307Z,52.45
2019-06-15T11:57:03.102Z,52.16
2019-06-15T11:59:33.908Z,53.29
2019-06-15T12:02:03.617Z,53.05
2019-06-15T12:04:33.627Z,50.87
2019-06-15T12:07:03.876Z,49.70
2019-06-15T12:09:33.764Z,49.19
2019-06-15T12:12:03.488Z,50.22
2019-06-15T12:14:33.302Z,48.57
2019-06-15T12:17:03.025Z,47.61
2019-06-15T12:19:33.018Z,46.54
2019-06-15T12:22:02.829Z,47.58
2019-06-15T12:24:32.686Z,46.34
2019-06-15T12:27:02.334Z,45.35
2019-06-15T12:29:33.179Z,47.27
2019-06-15T12:32:02.900Z,49.31
2019-06-15T12:34:32.694Z,46.62
2019-06-15T12:37:03.185Z,46.78
2019-06-15T12:39:32.988Z,45.32
2019-06-15T12:42:02.822Z,42.74
2019-06-15T12:44:32.592Z,44.83
2019-06-15T12:47:02.366Z,43.15
2019-06-15T12:49:32.382Z,45.58
2019-06-15T12:52:02.647Z,44.15
2019-06-15T12:54:32.399Z,44.97
2019-06-15T12:57:02.221Z,44.62
2019-06-15T12:59:32.331Z,43.62
2019-06-15T13:02:02.048Z,44.01
2019-06-15T13:04:31.954Z,44.54
2019-06-15T13:07:01.813Z,44.42
2019-06-15T13:09:33.554Z,44.77
2019-06-15T13:12:03.339Z,46.21
2019-06-15T13:14:33.262Z,45.64
2019-06-15T13:17:03.117Z,46.67
2019-06-15T13:19:33.064Z,47.75
2019-06-15T13:22:06.204Z,47.50
2019-06-15T13:24:34.425Z,44.74
2019-06-15T13:27:04.313Z,44.97
2019-06-15T13:29:34.247Z,45.09
2019-06-15T13:32:04.202Z,45.11
2019-06-15T13:34:34.014Z,45.11
2019-06-15T13:37:04.121Z,43.86
2019-06-15T13:39:33.976Z,43.15
2019-06-15T13:42:03.734Z,45.85
2019-06-15T13:44:33.509Z,47.03
2019-06-15T13:47:03.520Z,44.00
2019-06-15T13:49:33.309Z,43.36
2019-06-15T13:52:03.161Z,42.90
2019-06-15T13:54:34.475Z,45.29
2019-06-15T13:57:04.298Z,43.65
2019-06-15T13:59:34.555Z,43.53
2019-06-15T14:02:05.485Z,44.47
2019-06-15T14:04:35.267Z,41.91
2019-06-15T14:07:05.529Z,43.97
2019-06-15T14:09:35.243Z,42.20
2019-06-15T14:12:07.012Z,41.95
2019-06-15T14:14:37.381Z,41.90
2019-06-15T14:17:08.903Z,43.51
2019-06-15T14:19:38.822Z,41.88
2019-06-15T14:22:08.798Z,42.50
2019-06-15T14:24:38.615Z,43.74
2019-06-15T14:27:08.511Z,43.23
2019-06-15T14:29:39.131Z,42.38
2019-06-15T14:32:08.998Z,42.05
2019-06-15T14:34:39.873Z,41.39
2019-06-15T14:37:11.234Z,41.43
2019-06-15T14:39:41.092Z,43.02
2019-06-15T14:42:11.324Z,42.32
2019-06-15T14:44:41.113Z,41.75
2019-06-15T14:47:11.958Z,42.51
2019-06-15T14:49:41.792Z,42.50
2019-06-15T14:52:11.907Z,44.16
2019-06-15T14:54:41.664Z,43.82
2019-06-15T14:57:11.352Z,43.20
2019-06-15T14:59:55.382Z,43.08
2019-06-15T15:02:14.257Z,44.69
2019-06-15T15:04:44.270Z,43.88
2019-06-15T15:07:16.930Z,43.80
2019-06-15T15:09:49.925Z,41.98
2019-06-15T15:12:20.870Z,43.59
2019-06-15T15:14:50.648Z,42.21
2019-06-15T15:17:20.799Z,42.59
2019-06-15T15:19:50.785Z,42.47
2019-06-15T15:22:22.571Z,42.29
2019-06-15T15:24:52.234Z,42.59
2019-06-15T15:27:22.285Z,41.71
2019-06-15T15:29:52.076Z,42.57
2019-06-15T15:32:27.109Z,44.90
2019-06-15T15:34:56.014Z,45.08
2019-06-15T15:37:27.090Z,44.14
2019-06-15T15:39:57.034Z,45.74
2019-06-15T15:42:27.162Z,43.08
2019-06-15T15:44:57.111Z,43.86
2019-06-15T15:47:27.712Z,42.08
2019-06-15T15:49:57.767Z,42.69
2019-06-15T15:52:29.126Z,45.52
2019-06-15T15:54:58.822Z,46.11
2019-06-15T15:57:29.282Z,45.88
2019-06-15T15:59:59.049Z,46.87
2019-06-15T16:02:44.547Z,46.36
2019-06-15T16:05:00.106Z,46.52
2019-06-15T16:07:30.046Z,46.80
2019-06-15T16:09:59.819Z,47.38
2019-06-15T16:12:29.659Z,47.40
2019-06-15T16:14:59.408Z,50.09
2019-06-15T16:17:29.117Z,47.42
2019-06-15T16:19:58.930Z,47.35
2019-06-15T16:22:28.791Z,47.56
2019-06-15T16:24:58.540Z,47.29
2019-06-15T16:27:29.189Z,46.41
2019-06-15T16:29:58.959Z,46.42
2019-06-15T16:32:28.985Z,45.93
2019-06-15T16:34:59.042Z,45.62
2019-06-15T16:37:28.893Z,45.67
2019-06-15T16:39:58.956Z,46.25
2019-06-15T16:42:28.713Z,46.68
2019-06-15T16:44:58.444Z,46.34
2019-06-15T16:47:28.256Z,44.01
2019-06-15T16:49:57.888Z,43.80
2019-06-15T16:52:27.647Z,42.93
2019-06-15T16:54:57.401Z,42.89
2019-06-15T16:57:28.159Z,44.74
2019-06-15T16:59:57.969Z,42.76
2019-06-15T17:02:27.695Z,43.65
2019-06-15T17:04:57.374Z,42.39
2019-06-15T17:07:27.141Z,42.54
2019-06-15T17:09:57.008Z,44.08
2019-06-15T17:12:26.668Z,44.08
2019-06-15T17:14:56.356Z,43.44
2019-06-15T17:17:26.710Z,42.80
2019-06-15T17:19:57.005Z,43.84
2019-06-15T17:22:27.793Z,44.04
2019-06-15T17:24:57.462Z,44.26
2019-06-15T17:27:27.542Z,46.35
2019-06-15T17:29:57.981Z,46.06
2019-06-15T17:32:27.644Z,45.60
2019-06-15T17:34:57.310Z,45.65
2019-06-15T17:37:27.069Z,46.21
2019-06-15T17:39:56.733Z,47.09
2019-06-15T17:42:26.526Z,47.37
2019-06-15T17:44:57.201Z,47.23
2019-06-15T17:47:27.027Z,47.60
2019-06-15T17:49:56.827Z,47.38
2019-06-15T17:52:27.353Z,48.08
2019-06-15T17:54:57.176Z,47.78
2019-06-15T17:57:27.445Z,48.09
2019-06-15T17:59:57.438Z,49.08
2019-06-15T18:02:27.328Z,49.88
2019-06-15T18:04:57.019Z,50.04
2019-06-15T18:07:26.704Z,50.21
2019-06-15T18:09:56.428Z,49.73
2019-06-15T18:12:27.581Z,50.62
2019-06-15T18:14:58.375Z,49.96
2019-06-15T18:17:28.036Z,50.53
2019-06-15T18:19:57.888Z,50.48
2019-06-15T18:22:27.589Z,50.69
2019-06-15T18:24:57.366Z,50.14
2019-06-15T18:27:27.922Z,50.21
2019-06-15T18:29:57.647Z,49.67
2019-06-15T18:32:27.951Z,49.98
2019-06-15T18:34:57.629Z,50.15
2019-06-15T18:37:27.448Z,49.58
2019-06-15T18:39:57.157Z,50.31
2019-06-15T18:42:27.350Z,49.71
2019-06-15T18:44:58.884Z,50.08
2019-06-15T18:47:28.714Z,51.41
2019-06-15T18:49:58.507Z,50.32
2019-06-15T18:52:28.254Z,49.99
2019-06-15T18:54:57.956Z,49.17
2019-06-15T18:57:27.632Z,50.07
2019-06-15T18:59:57.426Z,50.58
2019-06-15T19:02:27.195Z,48.88
2019-06-15T19:04:56.867Z,49.98
2019-06-15T19:07:27.001Z,50.26
2019-06-15T19:09:56.773Z,49.92
2019-06-15T19:12:26.517Z,49.78
2019-06-15T19:14:56.272Z,50.09
2019-06-15T19:17:25.993Z,50.73
2019-06-15T19:19:57.242Z,51.27
2019-06-15T19:22:27.184Z,51.35
2019-06-15T19:24:57.369Z,52.46
2019-06-15T19:27:27.103Z,52.48
2019-06-15T19:29:56.752Z,52.26
2019-06-15T19:32:27.283Z,52.67
2019-06-15T19:34:57.081Z,53.99
2019-06-15T19:37:26.946Z,52.99
2019-06-15T19:39:56.648Z,53.88
2019-06-15T19:42:26.355Z,54.30
2019-06-15T19:44:56.271Z,53.84
2019-06-15T19:47:26.632Z,53.89
2019-06-15T19:49:56.965Z,54.18
2019-06-15T19:52:26.704Z,53.71
2019-06-15T19:54:56.492Z,54.62
2019-06-15T19:57:27.126Z,54.47
2019-06-15T19:59:58.242Z,54.96
2019-06-15T20:02:28.921Z,54.96
2019-06-15T20:05:03.665Z,55.36
2019-06-15T20:07:31.174Z,56.04
2019-06-15T20:10:00.866Z,56.51
2019-06-15T20:12:31.802Z,57.12
2019-06-15T20:15:01.668Z,57.32
2019-06-15T20:17:31.347Z,57.37
2019-06-15T20:20:01.355Z,57.04
2019-06-15T20:22:32.099Z,57.71
2019-06-15T20:25:01.951Z,58.31
2019-06-15T20:27:31.574Z,57.92
2019-06-15T20:30:01.305Z,58.91
2019-06-15T20:32:31.135Z,59.34
2019-06-15T20:35:16.233Z,59.79
2019-06-15T20:37:32.710Z,59.80
2019-06-15T20:40:02.482Z,58.97
2019-06-15T20:42:32.279Z,59.36
2019-06-15T20:45:02.358Z,59.68
2019-06-15T20:47:32.143Z,59.89
2019-06-15T20:50:02.112Z,60.09
2019-06-15T20:52:33.078Z,59.98
2019-06-15T20:55:06.454Z,60.01
2019-06-15T20:57:35.554Z,60.49
2019-06-15T21:00:06.519Z,60.50
2019-06-15T21:02:37.458Z,60.50
2019-06-15T21:05:08.133Z,60.27
2019-06-15T21:07:37.909Z,60.57
2019-06-15T21:10:08.252Z,60.80
2019-06-15T21:12:39.205Z,60.94
2019-06-15T21:15:10.876Z,61.51
2019-06-15T21:17:41.650Z,61.33
2019-06-15T21:20:11.458Z,60.89
2019-06-15T21:22:41.360Z,61.54
2019-06-15T21:25:12.247Z,61.89
2019-06-15T21:27:42.042Z,62.33
2019-06-15T21:30:12.271Z,62.13
2019-06-15T21:32:42.044Z,62.47
2019-06-15T21:35:13.003Z,62.14
2019-06-15T21:37:42.656Z,61.79
2019-06-15T21:40:15.284Z,61.83
2019-06-15T21:42:46.845Z,62.08
2019-06-15T21:45:17.668Z,61.64
2019-06-15T21:47:48.535Z,61.83
2019-06-15T21:50:18.284Z,62.41
2019-06-15T21:52:48.056Z,62.41
2019-06-15T21:55:17.817Z,62.19
2019-06-15T21:57:47.553Z,62.61
2019-06-15T22:00:21.167Z,62.74
2019-06-15T22:02:52.660Z,62.02
2019-06-15T22:05:22.651Z,62.77
2019-06-15T22:07:52.961Z,63.51
2019-06-15T22:10:23.433Z,64.03
2019-06-15T22:12:53.397Z,64.03
2019-06-15T22:15:23.236Z,64.03
2019-06-15T22:17:54.001Z,64.05
2019-06-15T22:20:26.212Z,63.39
2019-06-15T22:22:56.009Z,64.77
2019-06-15T22:25:26.521Z,64.54
2019-06-15T22:27:57.248Z,64.62
2019-06-15T22:30:27.705Z,64.92
2019-06-15T22:32:57.647Z,66.66
2019-06-15T22:35:27.787Z,67.61
2019-06-15T22:37:57.587Z,66.33
2019-06-15T22:40:28.041Z,65.95
2019-06-15T22:42:59.133Z,67.48
2019-06-15T22:45:30.469Z,67.07
2019-06-15T22:48:00.238Z,67.12
2019-06-15T22:50:31.201Z,67.93
2019-06-15T22:53:03.877Z,67.76
2019-06-15T22:55:32.608Z,68.17
2019-06-15T22:58:02.462Z,67.07
2019-06-15T23:00:34.015Z,66.63
2019-06-15T23:03:06.075Z,67.24
2019-06-15T23:05:35.470Z,67.59
2019-06-15T23:08:06.954Z,66.75
2019-06-15T23:10:36.909Z,66.45
2019-06-15T23:13:06.659Z,66.70
2019-06-15T23:15:37.177Z,67.33
2019-06-15T23:18:07.409Z,68.19
2019-06-15T23:20:37.204Z,67.55
2019-06-15T23:23:08.001Z,67.57
2019-06-15T23:25:37.755Z,67.40
2019-06-15T23:28:07.487Z,66.89
2019-06-15T23:30:37.231Z,66.14
2019-06-15T23:33:06.876Z,66.96
2019-06-15T23:35:42.207Z,66.99
2019-06-15T23:38:11.985Z,67.05
2019-06-15T23:40:41.708Z,67.14
2019-06-15T23:43:11.432Z,67.31
2019-06-15T23:45:41.054Z,67.48
2019-06-15T23:48:10.962Z,67.04
2019-06-15T23:50:40.615Z,67.51
2019-06-15T23:53:10.277Z,68.07
2019-06-15T23:55:40.064Z,68.98
2019-06-15T23:58:09.947Z,70.47
